Terminal Aerodrome Forecast
Issued by NWS Pendleton, OR

Home | Current Version | Previous Version | Text Only | Print | Product List | Glossary On
Versions: 1 2 3 4 5 6 7 8 9 10 11 12 13 14
954
FTUS46 KPDT 240022 AAA
TAFPDT
TAF AMD
KPDT 240022Z 2400/2424 18007KT P6SM VCSH SCT080 OVC110
      TEMPO 2400/2402 5SM -TSRA BKN050CB OVC090
     FM240500 22008KT P6SM SCT070 BKN110
     FM241000 28010KT P6SM -SHRA BKN040 OVC060
     FM241100 15006KT P6SM -SHRA SCT030 OVC035
     FM241800 25010KT P6SM -SHRA BKN035 OVC040=

USA.gov is the U.S. government's official web portal to all federal, state and local government web resources and services.